Time;durP1;ratioP1;P1;durP2;ratioP2;P2;SDS_P1;SDS_P2;PMS_P1;PMS_P2;Temp;Humidity;BMP_temperature;BMP_pressure;BME280_temperature;BME280_humidity;BME280_pressure;Samples;Min_cycle;Max_cycle;Signal;HPM_P1;HPM_P2
2022/03/23 00:00:46;;;;;;;43.55;24.05;;;;;;;;;;5118282;28;20036;-79
2022/03/23 00:03:13;;;;;;;44.28;23.88;;;;;;;;;;5117336;28;20059;-79
2022/03/23 00:05:39;;;;;;;45.28;24.35;;;;;;;;;;5117615;28;20462;-79
2022/03/23 00:08:05;;;;;;;47.35;24.92;;;;;;;;;;5120921;28;20039;-77
2022/03/23 00:10:31;;;;;;;45.92;23.30;;;;;;;;;;5106859;28;20054;-78
2022/03/23 00:12:58;;;;;;;46.63;23.17;;;;;;;;;;5100775;28;20109;-78
2022/03/23 00:15:24;;;;;;;42.53;23.63;;;;;;;;;;5118205;28;20032;-78
2022/03/23 00:17:50;;;;;;;43.13;24.05;;;;;;;;;;5116478;28;20122;-78
2022/03/23 00:20:16;;;;;;;43.60;23.60;;;;;;;;;;5099685;28;20104;-78
2022/03/23 00:22:42;;;;;;;45.63;23.70;;;;;;;;;;5115859;28;20500;-78
2022/03/23 00:25:08;;;;;;;40.15;22.63;;;;;;;;;;5117049;28;20035;-78
2022/03/23 00:27:35;;;;;;;46.47;24.10;;;;;;;;;;5116619;28;20032;-78
2022/03/23 00:30:01;;;;;;;45.47;25.17;;;;;;;;;;5099982;28;20083;-78
2022/03/23 00:32:27;;;;;;;43.72;22.83;;;;;;;;;;5116866;28;20055;-78
2022/03/23 00:34:53;;;;;;;45.53;23.25;;;;;;;;;;5117200;28;20344;-78
2022/03/23 00:37:19;;;;;;;38.25;22.42;;;;;;;;;;5098966;28;20112;-78
2022/03/23 00:39:46;;;;;;;45.15;24.15;;;;;;;;;;5099325;28;20101;-78
2022/03/23 00:42:12;;;;;;;43.05;23.95;;;;;;;;;;5119652;28;20073;-78
2022/03/23 00:44:38;;;;;;;50.90;25.60;;;;;;;;;;5104061;28;20039;-78
2022/03/23 00:47:04;;;;;;;44.90;24.30;;;;;;;;;;5128680;28;20093;-77
2022/03/23 00:49:30;;;;;;;47.78;24.75;;;;;;;;;;5128204;28;20036;-77
2022/03/23 00:51:56;;;;;;;44.40;23.95;;;;;;;;;;5128352;28;20046;-77
2022/03/23 00:54:22;;;;;;;46.38;24.38;;;;;;;;;;5130271;28;20077;-77
2022/03/23 00:56:50;;;;;;;50.10;23.05;;;;;;;;;;5112414;28;20040;-77
2022/03/23 00:59:16;;;;;;;48.33;24.45;;;;;;;;;;5133167;28;20443;-78
2022/03/23 01:01:45;;;;;;;45.85;23.67;;;;;;;;;;5133920;28;20039;-77
2022/03/23 01:04:11;;;;;;;42.58;22.92;;;;;;;;;;5123474;28;20073;-78
2022/03/23 01:06:37;;;;;;;45.67;23.63;;;;;;;;;;5110390;28;20053;-77
2022/03/23 01:09:03;;;;;;;42.67;22.73;;;;;;;;;;5135213;28;20055;-77
2022/03/23 01:11:29;;;;;;;43.58;23.17;;;;;;;;;;5121754;28;20031;-77
2022/03/23 01:13:55;;;;;;;48.70;23.95;;;;;;;;;;5131803;28;20032;-78
2022/03/23 01:16:21;;;;;;;47.97;24.83;;;;;;;;;;5104553;28;20526;-79
2022/03/23 01:18:47;;;;;;;45.40;24.85;;;;;;;;;;5121059;28;20032;-78
2022/03/23 01:21:16;;;;;;;47.70;24.52;;;;;;;;;;5121176;28;20449;-78
2022/03/23 01:23:42;;;;;;;43.47;24.80;;;;;;;;;;5104225;28;20489;-79
2022/03/23 01:26:09;;;;;;;43.83;23.60;;;;;;;;;;5101805;28;20044;-78
2022/03/23 01:28:35;;;;;;;46.58;24.02;;;;;;;;;;5118451;28;20046;-77
2022/03/23 01:31:01;;;;;;;45.80;24.42;;;;;;;;;;5119863;28;20063;-78
2022/03/23 01:33:27;;;;;;;43.65;25.40;;;;;;;;;;5102908;28;20036;-79
2022/03/23 01:35:53;;;;;;;46.88;24.85;;;;;;;;;;5120407;28;20050;-79
2022/03/23 01:38:19;;;;;;;42.95;24.10;;;;;;;;;;5120823;28;20118;-78
2022/03/23 01:40:45;;;;;;;41.53;23.80;;;;;;;;;;5120672;28;20036;-78
2022/03/23 01:43:11;;;;;;;43.70;23.38;;;;;;;;;;5120846;28;20401;-78
2022/03/23 01:45:37;;;;;;;41.97;23.05;;;;;;;;;;5120015;28;20134;-78
2022/03/23 01:48:03;;;;;;;44.42;24.17;;;;;;;;;;5119445;28;20067;-78
2022/03/23 01:50:29;;;;;;;42.97;24.10;;;;;;;;;;5119177;28;20050;-78
2022/03/23 01:52:55;;;;;;;41.35;23.13;;;;;;;;;;5101674;28;20114;-78
2022/03/23 01:55:21;;;;;;;43.65;23.35;;;;;;;;;;5101444;28;20040;-78
2022/03/23 01:57:47;;;;;;;43.60;23.20;;;;;;;;;;5119255;28;20035;-78
2022/03/23 02:00:16;;;;;;;41.13;22.92;;;;;;;;;;5118761;28;20077;-78
2022/03/23 02:02:43;;;;;;;49.30;24.73;;;;;;;;;;5119103;28;20082;-78
2022/03/23 02:05:09;;;;;;;47.53;24.98;;;;;;;;;;5119062;28;20416;-77
2022/03/23 02:07:36;;;;;;;45.95;24.05;;;;;;;;;;5119117;28;20495;-78
2022/03/23 02:10:02;;;;;;;46.47;24.48;;;;;;;;;;5118795;28;20096;-78
2022/03/23 02:12:30;;;;;;;48.80;25.27;;;;;;;;;;5102762;28;20044;-78
2022/03/23 02:14:56;;;;;;;47.40;25.05;;;;;;;;;;5105818;28;20040;-78
2022/03/23 02:17:22;;;;;;;48.78;25.70;;;;;;;;;;5103204;28;20051;-78
2022/03/23 02:19:48;;;;;;;49.47;25.30;;;;;;;;;;5120312;28;20036;-78
2022/03/23 02:22:14;;;;;;;46.33;24.67;;;;;;;;;;5119951;28;20063;-78
2022/03/23 02:24:40;;;;;;;47.10;24.50;;;;;;;;;;5102123;28;20043;-78
2022/03/23 02:27:06;;;;;;;45.95;25.13;;;;;;;;;;5101207;28;20105;-77
2022/03/23 02:29:33;;;;;;;45.67;25.92;;;;;;;;;;5100116;28;20051;-77
2022/03/23 02:32:01;;;;;;;45.63;26.45;;;;;;;;;;5119227;28;20069;-78
2022/03/23 02:34:27;;;;;;;43.90;24.77;;;;;;;;;;5101326;28;20032;-78
2022/03/23 02:36:53;;;;;;;41.78;24.83;;;;;;;;;;5119204;28;20442;-77
2022/03/23 02:39:19;;;;;;;41.22;24.23;;;;;;;;;;5116965;28;20039;-77
2022/03/23 02:41:45;;;;;;;45.60;24.95;;;;;;;;;;5102227;28;20100;-78
2022/03/23 02:44:15;;;;;;;45.90;24.50;;;;;;;;;;5120889;28;20039;-78
2022/03/23 02:46:41;;;;;;;42.30;23.88;;;;;;;;;;5126305;28;20054;-78
2022/03/23 02:49:07;;;;;;;45.88;24.35;;;;;;;;;;5120773;28;20043;-78
2022/03/23 02:51:33;;;;;;;46.60;24.40;;;;;;;;;;5118110;28;20044;-78
2022/03/23 03:02:16;;;;;;;45.15;26.35;;;;;;;;;;5118735;28;20035;-79
2022/03/23 03:04:42;;;;;;;47.67;25.17;;;;;;;;;;5118452;28;20087;-79
2022/03/23 03:07:08;;;;;;;45.90;24.77;;;;;;;;;;5101898;28;20093;-79
2022/03/23 03:09:34;;;;;;;42.67;24.25;;;;;;;;;;5101886;28;20043;-79
2022/03/23 03:12:01;;;;;;;42.35;24.02;;;;;;;;;;5119463;28;20103;-79
2022/03/23 03:14:28;;;;;;;43.90;23.33;;;;;;;;;;5119528;28;20336;-79
2022/03/23 03:16:54;;;;;;;49.47;24.92;;;;;;;;;;5117913;28;20046;-79
2022/03/23 03:19:20;;;;;;;42.53;24.75;;;;;;;;;;5118677;28;20043;-78
2022/03/23 03:21:46;;;;;;;43.92;24.25;;;;;;;;;;5117953;28;20126;-78
2022/03/23 03:24:12;;;;;;;39.85;23.85;;;;;;;;;;5118742;28;20027;-78
2022/03/23 03:26:38;;;;;;;48.30;25.08;;;;;;;;;;5117797;28;20040;-79
2022/03/23 03:29:04;;;;;;;41.17;24.02;;;;;;;;;;5100781;28;20115;-77
2022/03/23 03:34:34;;;;;;;42.92;25.02;;;;;;;;;;5118831;28;20039;-77
2022/03/23 03:37:00;;;;;;;45.20;25.50;;;;;;;;;;5118238;28;20040;-78
2022/03/23 03:39:26;;;;;;;48.08;25.63;;;;;;;;;;5117810;28;20046;-77
2022/03/23 03:41:52;;;;;;;43.63;24.73;;;;;;;;;;5101171;28;20040;-78
2022/03/23 03:44:18;;;;;;;46.55;25.38;;;;;;;;;;5118721;28;20085;-79
2022/03/23 03:46:45;;;;;;;47.95;25.75;;;;;;;;;;5118372;28;20043;-79
2022/03/23 03:49:11;;;;;;;45.80;26.80;;;;;;;;;;5117499;28;20035;-77
2022/03/23 03:51:37;;;;;;;45.95;26.27;;;;;;;;;;5100168;28;20096;-78
2022/03/23 03:54:05;;;;;;;44.67;26.30;;;;;;;;;;5100686;28;20096;-79
2022/03/23 03:56:31;;;;;;;49.75;25.75;;;;;;;;;;5118625;28;20119;-79
2022/03/23 03:58:57;;;;;;;44.95;25.30;;;;;;;;;;5101594;28;20130;-79
2022/03/23 04:01:23;;;;;;;53.50;27.08;;;;;;;;;;5117311;28;20039;-78
2022/03/23 04:03:49;;;;;;;44.38;26.02;;;;;;;;;;5099597;28;20059;-78
2022/03/23 04:06:15;;;;;;;44.67;26.35;;;;;;;;;;5116908;28;20043;-78
2022/03/23 04:08:41;;;;;;;49.90;26.75;;;;;;;;;;5116960;28;20451;-78
2022/03/23 04:11:06;;;;;;;46.45;26.75;;;;;;;;;;5116874;28;20127;-78
2022/03/23 04:13:33;;;;;;;47.70;25.42;;;;;;;;;;5117528;28;20036;-78
2022/03/23 04:15:59;;;;;;;45.65;24.88;;;;;;;;;;5099344;28;20035;-78
2022/03/23 04:18:25;;;;;;;40.38;23.90;;;;;;;;;;5105959;28;20041;-78
2022/03/23 04:20:51;;;;;;;41.83;24.27;;;;;;;;;;5122950;28;20412;-77
2022/03/23 04:23:17;;;;;;;43.05;23.27;;;;;;;;;;5106556;28;20039;-78
2022/03/23 04:25:43;;;;;;;46.13;25.45;;;;;;;;;;5123038;28;20114;-78
2022/03/23 04:28:09;;;;;;;45.00;24.15;;;;;;;;;;5105626;28;20078;-78
2022/03/23 04:30:35;;;;;;;43.15;24.63;;;;;;;;;;5105356;28;20047;-78
2022/03/23 04:33:01;;;;;;;41.70;24.50;;;;;;;;;;5123635;28;20422;-78
2022/03/23 04:35:27;;;;;;;42.78;24.08;;;;;;;;;;5104931;28;20070;-78
2022/03/23 04:37:53;;;;;;;44.50;25.27;;;;;;;;;;5123101;28;20145;-79
2022/03/23 04:40:19;;;;;;;41.42;24.27;;;;;;;;;;5106199;28;20035;-78
2022/03/23 04:42:45;;;;;;;41.55;22.77;;;;;;;;;;5124804;28;20566;-78
2022/03/23 04:45:11;;;;;;;42.33;24.02;;;;;;;;;;5106405;28;20043;-78
2022/03/23 04:47:38;;;;;;;41.53;24.58;;;;;;;;;;5122309;28;20040;-78
2022/03/23 04:50:05;;;;;;;45.70;24.42;;;;;;;;;;5120132;28;20040;-79
2022/03/23 04:52:31;;;;;;;38.45;23.45;;;;;;;;;;5123649;28;20466;-79
2022/03/23 04:54:57;;;;;;;48.50;25.13;;;;;;;;;;5124910;28;20462;-79
2022/03/23 04:57:26;;;;;;;42.97;24.58;;;;;;;;;;5124772;28;20063;-79
2022/03/23 04:59:52;;;;;;;41.55;23.35;;;;;;;;;;5107748;28;20036;-79
2022/03/23 05:02:18;;;;;;;39.55;23.52;;;;;;;;;;5107976;28;20439;-79
2022/03/23 05:04:44;;;;;;;42.10;22.95;;;;;;;;;;5124548;28;20067;-79
2022/03/23 05:07:10;;;;;;;42.53;22.95;;;;;;;;;;5110063;28;20040;-78
2022/03/23 05:09:36;;;;;;;39.75;22.10;;;;;;;;;;5126171;28;20053;-79
2022/03/23 05:12:02;;;;;;;42.53;22.52;;;;;;;;;;5107999;28;20171;-79
2022/03/23 05:14:28;;;;;;;43.55;24.23;;;;;;;;;;5107253;28;20130;-79
2022/03/23 05:16:54;;;;;;;38.17;22.52;;;;;;;;;;5125906;28;20070;-77
2022/03/23 05:19:20;;;;;;;43.20;23.42;;;;;;;;;;5108488;28;20078;-79
2022/03/23 05:21:47;;;;;;;42.08;23.67;;;;;;;;;;5125194;28;20047;-79
2022/03/23 05:24:13;;;;;;;45.30;25.25;;;;;;;;;;5125357;28;20118;-78
2022/03/23 05:26:39;;;;;;;45.05;24.33;;;;;;;;;;5139535;28;20053;-80
2022/03/23 05:29:05;;;;;;;41.33;23.55;;;;;;;;;;5124969;28;20044;-81
2022/03/23 05:31:31;;;;;;;46.92;25.10;;;;;;;;;;5132639;28;20045;-77
2022/03/23 05:33:57;;;;;;;44.65;24.15;;;;;;;;;;5105618;28;20042;-77
2022/03/23 05:36:23;;;;;;;43.80;23.65;;;;;;;;;;5138021;28;20024;-76
2022/03/23 05:38:49;;;;;;;47.17;24.83;;;;;;;;;;5122903;28;20048;-76
2022/03/23 05:41:15;;;;;;;41.28;24.02;;;;;;;;;;5140102;28;20044;-76
2022/03/23 05:43:41;;;;;;;46.15;25.70;;;;;;;;;;5107498;28;20371;-76
2022/03/23 05:46:07;;;;;;;50.75;26.50;;;;;;;;;;5119015;28;20114;-76
2022/03/23 05:48:33;;;;;;;44.70;26.10;;;;;;;;;;5101646;28;20031;-77
2022/03/23 05:50:59;;;;;;;42.67;24.85;;;;;;;;;;5119368;28;20397;-75
2022/03/23 05:53:25;;;;;;;45.75;24.92;;;;;;;;;;5119507;28;20488;-76
2022/03/23 05:55:51;;;;;;;41.92;25.05;;;;;;;;;;5116775;28;20055;-76
2022/03/23 05:58:17;;;;;;;45.30;26.23;;;;;;;;;;5117188;28;20075;-77
2022/03/23 06:00:43;;;;;;;45.83;26.27;;;;;;;;;;5117257;28;20043;-76
2022/03/23 06:03:10;;;;;;;50.88;28.02;;;;;;;;;;5100446;28;20054;-76
2022/03/23 06:05:36;;;;;;;45.08;26.70;;;;;;;;;;5118308;28;20040;-76
2022/03/23 06:08:03;;;;;;;43.38;26.58;;;;;;;;;;5117809;28;20043;-77
2022/03/23 06:10:29;;;;;;;49.92;28.02;;;;;;;;;;5117107;28;20089;-76
2022/03/23 06:12:55;;;;;;;46.80;27.10;;;;;;;;;;5099729;28;20036;-77
2022/03/23 06:15:22;;;;;;;48.33;27.58;;;;;;;;;;5116896;28;20046;-77
2022/03/23 06:17:48;;;;;;;47.70;27.25;;;;;;;;;;5117269;28;20059;-77
2022/03/23 06:20:14;;;;;;;48.03;27.70;;;;;;;;;;5116913;28;20128;-77
2022/03/23 06:22:40;;;;;;;51.38;28.15;;;;;;;;;;5100285;28;20043;-78
2022/03/23 06:25:07;;;;;;;48.80;27.80;;;;;;;;;;5102656;28;20058;-77
2022/03/23 06:27:34;;;;;;;50.78;28.33;;;;;;;;;;5119297;28;20451;-77
2022/03/23 06:30:00;;;;;;;45.60;27.20;;;;;;;;;;5099968;28;20071;-78
2022/03/23 06:32:26;;;;;;;52.72;28.45;;;;;;;;;;5099353;28;20067;-77
2022/03/23 06:34:52;;;;;;;52.10;28.52;;;;;;;;;;5099295;28;20027;-77
2022/03/23 06:37:18;;;;;;;50.88;27.88;;;;;;;;;;5102641;28;20039;-76
2022/03/23 06:39:44;;;;;;;44.78;26.23;;;;;;;;;;5116908;28;20049;-77
2022/03/23 06:42:10;;;;;;;46.97;27.30;;;;;;;;;;5116954;28;20441;-77
2022/03/23 06:44:38;;;;;;;56.05;27.45;;;;;;;;;;5116600;28;20095;-77
2022/03/23 06:47:04;;;;;;;48.90;26.52;;;;;;;;;;5116690;28;20448;-77
2022/03/23 06:49:30;;;;;;;45.38;25.75;;;;;;;;;;5116247;28;20435;-77
2022/03/23 06:51:56;;;;;;;49.05;27.38;;;;;;;;;;5099182;28;20071;-77
2022/03/23 06:54:22;;;;;;;44.78;26.23;;;;;;;;;;5117135;28;20092;-77
2022/03/23 06:56:51;;;;;;;46.65;26.85;;;;;;;;;;5117344;28;20445;-77
2022/03/23 06:59:17;;;;;;;45.95;26.63;;;;;;;;;;5115937;28;20042;-76
2022/03/23 07:01:43;;;;;;;45.88;25.75;;;;;;;;;;5115974;28;20043;-76
2022/03/23 07:04:09;;;;;;;51.20;27.05;;;;;;;;;;5098231;28;20375;-76
2022/03/23 07:06:35;;;;;;;44.08;24.98;;;;;;;;;;5098751;28;20045;-76
2022/03/23 07:11:45;;;;;;;57.30;28.55;;;;;;;;;;5115579;28;20047;-76
2022/03/23 07:14:11;;;;;;;57.72;32.05;;;;;;;;;;5115679;28;20118;-76
2022/03/23 07:16:38;;;;;;;54.85;31.45;;;;;;;;;;5115532;28;20340;-76
2022/03/23 07:19:04;;;;;;;49.42;27.00;;;;;;;;;;5115559;28;20036;-76
2022/03/23 07:21:31;;;;;;;45.88;24.58;;;;;;;;;;5098208;28;20070;-76
2022/03/23 07:23:57;;;;;;;44.17;24.27;;;;;;;;;;5116484;28;20469;-76
2022/03/23 07:26:23;;;;;;;48.58;24.77;;;;;;;;;;5098457;28;20042;-76
2022/03/23 07:28:49;;;;;;;42.47;24.23;;;;;;;;;;5098617;28;20100;-76
2022/03/23 07:31:15;;;;;;;42.75;23.95;;;;;;;;;;5115416;28;20063;-76
2022/03/23 07:33:41;;;;;;;40.08;22.60;;;;;;;;;;5115075;28;20043;-76
2022/03/23 07:36:07;;;;;;;42.42;24.08;;;;;;;;;;5098247;28;20024;-78
2022/03/23 07:38:33;;;;;;;43.03;24.38;;;;;;;;;;5116298;28;20046;-76
2022/03/23 07:40:59;;;;;;;41.33;23.50;;;;;;;;;;5115368;28;20082;-76
2022/03/23 07:43:25;;;;;;;47.78;23.98;;;;;;;;;;5115333;28;20043;-76
2022/03/23 07:45:51;;;;;;;44.78;22.75;;;;;;;;;;5115506;28;20339;-76
2022/03/23 07:48:17;;;;;;;43.55;24.20;;;;;;;;;;5115037;28;20074;-77
2022/03/23 07:50:43;;;;;;;41.63;23.10;;;;;;;;;;5114742;28;20054;-76
2022/03/23 07:53:09;;;;;;;41.80;22.55;;;;;;;;;;5114794;28;20118;-76
2022/03/23 07:55:35;;;;;;;46.10;23.08;;;;;;;;;;5115056;28;20088;-76
2022/03/23 07:58:01;;;;;;;44.33;23.30;;;;;;;;;;5098267;28;20067;-76
2022/03/23 08:00:27;;;;;;;45.13;23.95;;;;;;;;;;5114865;28;20370;-76
2022/03/23 08:02:53;;;;;;;44.05;24.48;;;;;;;;;;5114756;28;20066;-76
2022/03/23 08:05:21;;;;;;;43.20;22.67;;;;;;;;;;5116380;28;20035;-76
2022/03/23 08:07:47;;;;;;;44.47;23.55;;;;;;;;;;5097671;28;20122;-76
2022/03/23 08:10:13;;;;;;;42.35;23.75;;;;;;;;;;5114657;28;20134;-76
2022/03/23 08:12:39;;;;;;;49.35;23.77;;;;;;;;;;5097453;28;20131;-76
2022/03/23 08:15:05;;;;;;;39.10;23.02;;;;;;;;;;5114820;28;20443;-76
2022/03/23 08:17:31;;;;;;;38.38;23.70;;;;;;;;;;5119922;28;20447;-78
2022/03/23 08:22:42;;;;;;;43.53;24.00;;;;;;;;;;5117171;28;20127;-78
2022/03/23 08:25:08;;;;;;;42.92;23.63;;;;;;;;;;5118153;28;20062;-78
2022/03/23 08:27:34;;;;;;;40.20;22.98;;;;;;;;;;5118500;28;20055;-78
2022/03/23 08:30:00;;;;;;;43.97;23.60;;;;;;;;;;5118955;28;20047;-78
2022/03/23 08:32:26;;;;;;;41.08;22.05;;;;;;;;;;5100295;28;20062;-79
2022/03/23 08:34:52;;;;;;;36.60;21.60;;;;;;;;;;5117244;28;20045;-79
2022/03/23 08:37:18;;;;;;;42.38;23.27;;;;;;;;;;5100616;28;20093;-78
2022/03/23 08:39:45;;;;;;;37.00;22.40;;;;;;;;;;5099511;28;20380;-78
2022/03/23 08:42:11;;;;;;;40.03;22.30;;;;;;;;;;5117475;28;20068;-78
2022/03/23 08:44:37;;;;;;;39.65;22.75;;;;;;;;;;5117765;28;20050;-79
2022/03/23 08:47:03;;;;;;;38.30;22.08;;;;;;;;;;5132276;28;20039;-78
2022/03/23 08:49:29;;;;;;;36.65;21.98;;;;;;;;;;5105368;28;20366;-78
2022/03/23 08:51:55;;;;;;;42.33;22.83;;;;;;;;;;5122295;28;20377;-80
2022/03/23 08:54:22;;;;;;;41.95;22.60;;;;;;;;;;5115447;28;20050;-80
2022/03/23 08:56:48;;;;;;;39.33;22.55;;;;;;;;;;5115827;28;20036;-81
2022/03/23 08:59:14;;;;;;;44.80;22.85;;;;;;;;;;5117840;28;20035;-80
2022/03/23 09:01:40;;;;;;;39.50;22.38;;;;;;;;;;5117984;28;20058;-81
2022/03/23 09:04:08;;;;;;;35.85;22.50;;;;;;;;;;5118492;28;20066;-80
2022/03/23 09:06:34;;;;;;;39.90;22.50;;;;;;;;;;5104047;28;20031;-81
2022/03/23 09:09:00;;;;;;;40.53;21.55;;;;;;;;;;5121785;28;20048;-80
2022/03/23 09:11:26;;;;;;;36.78;22.58;;;;;;;;;;5121347;28;20046;-79
2022/03/23 09:13:52;;;;;;;45.80;22.95;;;;;;;;;;5121425;28;20039;-79
2022/03/23 09:16:18;;;;;;;38.33;22.77;;;;;;;;;;5104016;28;20435;-79
2022/03/23 09:18:44;;;;;;;44.28;22.83;;;;;;;;;;5120937;28;20420;-79
2022/03/23 09:21:10;;;;;;;41.90;22.05;;;;;;;;;;5103327;28;20043;-80
2022/03/23 09:23:36;;;;;;;37.28;22.30;;;;;;;;;;5103670;28;20036;-79
2022/03/23 09:26:03;;;;;;;40.03;21.65;;;;;;;;;;5120561;28;20036;-80
2022/03/23 09:28:29;;;;;;;40.42;22.30;;;;;;;;;;5120843;28;20036;-79
2022/03/23 09:30:55;;;;;;;39.08;21.50;;;;;;;;;;5103315;28;20039;-80
2022/03/23 09:33:21;;;;;;;35.72;22.23;;;;;;;;;;5120834;28;20048;-80
2022/03/23 09:35:47;;;;;;;33.60;21.33;;;;;;;;;;5103815;28;20041;-80
2022/03/23 09:38:13;;;;;;;34.72;19.15;;;;;;;;;;5121143;28;20031;-81
2022/03/23 09:40:39;;;;;;;32.53;18.88;;;;;;;;;;5120814;28;20089;-81
2022/03/23 09:43:08;;;;;;;30.55;18.60;;;;;;;;;;5121911;28;20046;-81
2022/03/23 09:48:00;;;;;;;36.40;20.58;;;;;;;;;;5123569;28;20071;-80
2022/03/23 09:50:27;;;;;;;34.97;19.33;;;;;;;;;;5105208;28;20134;-81
2022/03/23 09:52:53;;;;;;;33.95;20.40;;;;;;;;;;5123746;28;20032;-79
2022/03/23 09:55:19;;;;;;;33.03;19.33;;;;;;;;;;5128077;28;20057;-81
2022/03/23 09:57:44;;;;;;;34.15;19.70;;;;;;;;;;5134109;28;20020;-81
2022/03/23 10:00:12;;;;;;;34.85;19.55;;;;;;;;;;5139606;28;20077;-79
2022/03/23 10:02:41;;;;;;;35.17;18.80;;;;;;;;;;5114217;28;20142;-79
2022/03/23 10:05:13;;;;;;;38.67;19.48;;;;;;;;;;5133763;28;20063;-81
2022/03/23 10:07:49;;;;;;;34.35;21.35;;;;;;;;;;5134894;28;20051;-80
2022/03/23 10:10:30;;;;;;;34.15;19.25;;;;;;;;;;5122234;28;20024;-81
2022/03/23 10:13:16;;;;;;;30.60;18.15;;;;;;;;;;5132266;28;20063;-80
2022/03/23 10:16:02;;;;;;;27.65;16.95;;;;;;;;;;5120202;28;20067;-81
2022/03/23 10:18:47;;;;;;;29.38;17.52;;;;;;;;;;5121581;28;20035;-80
2022/03/23 10:21:13;;;;;;;31.33;18.95;;;;;;;;;;5121126;28;20043;-79
2022/03/23 10:23:39;;;;;;;31.67;19.60;;;;;;;;;;5120161;28;20039;-80
2022/03/23 10:26:12;;;;;;;27.90;18.67;;;;;;;;;;5117886;28;20351;-80
2022/03/23 10:28:38;;;;;;;28.48;18.92;;;;;;;;;;5101222;28;20506;-79
2022/03/23 10:31:15;;;;;;;35.25;18.27;;;;;;;;;;5119212;28;20046;-78
2022/03/23 10:33:41;;;;;;;34.70;20.13;;;;;;;;;;5118662;28;20046;-78
2022/03/23 10:36:06;;;;;;;33.58;19.05;;;;;;;;;;5119514;28;20044;-79
2022/03/23 10:38:37;;;;;;;33.60;18.58;;;;;;;;;;5101471;28;20070;-78
2022/03/23 10:41:07;;;;;;;31.52;19.50;;;;;;;;;;5119202;28;20117;-78
2022/03/23 10:43:37;;;;;;;30.20;18.25;;;;;;;;;;5101193;28;20141;-76
2022/03/23 10:46:07;;;;;;;25.25;17.63;;;;;;;;;;5099543;28;20036;-76
2022/03/23 10:48:33;;;;;;;29.08;18.08;;;;;;;;;;5116410;28;20042;-76
2022/03/23 10:50:59;;;;;;;27.90;16.65;;;;;;;;;;5103975;28;20110;-79
2022/03/23 10:53:35;;;;;;;30.30;18.63;;;;;;;;;;5119883;28;20040;-79
2022/03/23 10:56:02;;;;;;;30.92;17.85;;;;;;;;;;5115984;28;20031;-76
2022/03/23 11:01:31;;;;;;;30.85;18.73;;;;;;;;;;5117030;28;20035;-74
2022/03/23 11:04:01;;;;;;;26.63;16.20;;;;;;;;;;5098317;28;20416;-74
2022/03/23 11:06:27;;;;;;;31.52;15.35;;;;;;;;;;5099649;28;20051;-76
2022/03/23 11:08:54;;;;;;;23.45;15.65;;;;;;;;;;5098520;28;20795;-76
2022/03/23 11:16:46;;;;;;;26.55;16.00;;;;;;;;;;5117649;28;20039;-76
2022/03/23 11:19:12;;;;;;;30.42;18.30;;;;;;;;;;5099579;28;20098;-77
2022/03/23 11:21:59;;;;;;;28.98;17.23;;;;;;;;;;5116518;28;20385;-76
2022/03/23 11:24:25;;;;;;;25.65;16.92;;;;;;;;;;5116312;28;20070;-76
2022/03/23 11:26:52;;;;;;;28.27;18.48;;;;;;;;;;5115461;28;20043;-76
2022/03/23 11:29:18;;;;;;;31.08;19.13;;;;;;;;;;5115261;28;20039;-76
2022/03/23 11:31:47;;;;;;;25.80;18.50;;;;;;;;;;5098281;28;20042;-75
2022/03/23 11:34:15;;;;;;;29.13;18.50;;;;;;;;;;5115773;28;20108;-75
2022/03/23 11:36:41;;;;;;;36.42;18.88;;;;;;;;;;5098144;28;20478;-75
2022/03/23 11:39:07;;;;;;;30.10;19.30;;;;;;;;;;5115140;28;20036;-76
2022/03/23 11:41:34;;;;;;;28.63;18.42;;;;;;;;;;5099052;28;20110;-75
2022/03/23 11:44:00;;;;;;;30.65;19.15;;;;;;;;;;5098352;28;20042;-74
2022/03/23 11:46:26;;;;;;;31.27;18.35;;;;;;;;;;5115850;28;20036;-74
2022/03/23 11:48:58;;;;;;;28.90;19.00;;;;;;;;;;5097898;28;20374;-74
2022/03/23 11:51:24;;;;;;;30.23;19.50;;;;;;;;;;5115082;28;20126;-76
2022/03/23 11:54:00;;;;;;;31.83;18.70;;;;;;;;;;5117004;28;20131;-74
2022/03/23 11:56:34;;;;;;;31.23;20.00;;;;;;;;;;5117509;28;20048;-74
2022/03/23 11:59:19;;;;;;;28.30;18.15;;;;;;;;;;5099897;28;20032;-74
2022/03/23 12:01:45;;;;;;;28.00;18.70;;;;;;;;;;5120859;28;20067;-75
2022/03/23 12:04:13;;;;;;;32.40;18.77;;;;;;;;;;5129964;28;20081;-75
2022/03/23 12:06:40;;;;;;;28.60;19.20;;;;;;;;;;5104785;28;20062;-75
2022/03/23 12:09:06;;;;;;;28.48;19.10;;;;;;;;;;5122897;28;20038;-75
2022/03/23 12:11:38;;;;;;;31.38;19.30;;;;;;;;;;5116253;28;20035;-75
2022/03/23 12:14:05;;;;;;;33.30;18.92;;;;;;;;;;5115337;28;20416;-76
2022/03/23 12:16:46;;;;;;;33.70;20.20;;;;;;;;;;5098037;28;20043;-76
2022/03/23 12:19:19;;;;;;;27.50;19.23;;;;;;;;;;5115141;28;20051;-75
2022/03/23 12:21:59;;;;;;;34.30;19.88;;;;;;;;;;5098142;28;20078;-75
2022/03/23 12:24:40;;;;;;;28.60;20.38;;;;;;;;;;5115475;28;20050;-76
2022/03/23 12:27:08;;;;;;;31.98;20.13;;;;;;;;;;5115960;28;20409;-76
2022/03/23 12:29:35;;;;;;;31.30;20.63;;;;;;;;;;5115994;28;20043;-76
2022/03/23 12:32:06;;;;;;;32.10;20.52;;;;;;;;;;5097472;28;20213;-76
2022/03/23 12:34:32;;;;;;;31.95;20.38;;;;;;;;;;5114634;28;20040;-75
2022/03/23 12:37:07;;;;;;;29.20;19.33;;;;;;;;;;5114758;28;20526;-75
2022/03/23 12:39:37;;;;;;;28.33;18.33;;;;;;;;;;5119458;28;20035;-75
2022/03/23 12:42:12;;;;;;;32.10;19.27;;;;;;;;;;5101754;28;20078;-76
2022/03/23 12:44:38;;;;;;;31.50;20.15;;;;;;;;;;5118209;28;20463;-76
2022/03/23 12:47:07;;;;;;;27.00;19.08;;;;;;;;;;5118785;28;20124;-76
2022/03/23 12:58:10;;;;;;;32.20;19.58;;;;;;;;;;5119046;28;20134;-75
2022/03/23 13:00:37;;;;;;;26.80;18.33;;;;;;;;;;5118249;28;20031;-75
2022/03/23 13:03:06;;;;;;;26.88;17.10;;;;;;;;;;5119228;28;20131;-75
2022/03/23 13:05:33;;;;;;;27.08;17.17;;;;;;;;;;5118267;28;20039;-75
2022/03/23 13:07:59;;;;;;;27.13;17.05;;;;;;;;;;5100922;28;20043;-77
2022/03/23 13:10:25;;;;;;;28.63;16.67;;;;;;;;;;5101154;28;20036;-75
2022/03/23 13:12:51;;;;;;;24.33;15.02;;;;;;;;;;5100829;28;20142;-75
2022/03/23 13:15:17;;;;;;;24.23;16.17;;;;;;;;;;5119510;28;20435;-76
2022/03/23 13:17:44;;;;;;;26.65;17.60;;;;;;;;;;5117421;28;20112;-74
2022/03/23 13:20:10;;;;;;;28.00;17.55;;;;;;;;;;5101210;28;20093;-74
2022/03/23 13:22:40;;;;;;;25.23;17.00;;;;;;;;;;5117673;28;20047;-75
2022/03/23 13:25:10;;;;;;;25.23;16.08;;;;;;;;;;5100937;28;20039;-75
2022/03/23 13:27:37;;;;;;;28.05;16.45;;;;;;;;;;5100566;28;20122;-76
2022/03/23 13:30:04;;;;;;;26.27;18.05;;;;;;;;;;5100401;28;20050;-75
2022/03/23 13:32:31;;;;;;;37.13;18.13;;;;;;;;;;5117411;28;20039;-75
2022/03/23 13:34:58;;;;;;;26.85;17.75;;;;;;;;;;5117595;28;20063;-75
2022/03/23 13:37:24;;;;;;;26.75;17.55;;;;;;;;;;5117174;28;20032;-74
2022/03/23 13:39:50;;;;;;;29.50;17.55;;;;;;;;;;5117229;28;20092;-75
2022/03/23 13:45:06;;;;;;;29.73;19.23;;;;;;;;;;5117737;28;20035;-75
2022/03/23 13:47:32;;;;;;;29.77;17.75;;;;;;;;;;5117224;28;20047;-75
2022/03/23 13:49:58;;;;;;;27.60;17.48;;;;;;;;;;5099266;28;20036;-76
2022/03/23 13:52:26;;;;;;;29.13;17.90;;;;;;;;;;5116957;28;20463;-76
2022/03/23 13:54:53;;;;;;;28.10;17.90;;;;;;;;;;5101048;28;20040;-76
2022/03/23 13:57:19;;;;;;;27.27;16.65;;;;;;;;;;5118090;27;20085;-75
2022/03/23 13:59:49;;;;;;;25.13;16.88;;;;;;;;;;5116956;28;20419;-76
2022/03/23 14:02:17;;;;;;;26.10;17.15;;;;;;;;;;5117221;28;20054;-77
2022/03/23 14:04:43;;;;;;;24.98;16.70;;;;;;;;;;5118880;28;20056;-78
2022/03/23 14:07:11;;;;;;;25.38;16.27;;;;;;;;;;5119167;28;20043;-78
2022/03/23 14:09:40;;;;;;;25.10;16.52;;;;;;;;;;5117326;28;20049;-77
2022/03/23 14:12:13;;;;;;;23.90;16.45;;;;;;;;;;5099823;28;20118;-76
2022/03/23 14:14:40;;;;;;;24.73;16.05;;;;;;;;;;5117259;28;20035;-77
2022/03/23 14:17:23;;;;;;;27.10;16.90;;;;;;;;;;5100243;28;20407;-76
2022/03/23 14:19:50;;;;;;;24.77;16.85;;;;;;;;;;5118030;28;20405;-77
2022/03/23 14:22:18;;;;;;;27.40;15.40;;;;;;;;;;5117535;28;20104;-78
2022/03/23 14:24:44;;;;;;;24.35;16.38;;;;;;;;;;5100107;28;20127;-77
2022/03/23 14:27:31;;;;;;;47.47;16.85;;;;;;;;;;5118552;28;20039;-76
2022/03/23 14:30:07;;;;;;;26.98;16.67;;;;;;;;;;5117342;28;20039;-76
2022/03/23 14:32:51;;;;;;;32.65;16.08;;;;;;;;;;5115954;28;20054;-78
2022/03/23 14:35:18;;;;;;;26.05;15.10;;;;;;;;;;5119141;28;20043;-76
2022/03/23 14:37:50;;;;;;;34.47;15.93;;;;;;;;;;5099787;28;20462;-76
2022/03/23 14:40:20;;;;;;;26.70;16.77;;;;;;;;;;5117760;28;20375;-76
2022/03/23 14:42:46;;;;;;;25.75;17.10;;;;;;;;;;5117977;28;20475;-77
2022/03/23 14:45:29;;;;;;;26.73;16.63;;;;;;;;;;5117527;28;20043;-75
2022/03/23 14:47:55;;;;;;;29.35;17.52;;;;;;;;;;5101300;28;20040;-75
2022/03/23 14:50:21;;;;;;;25.38;16.30;;;;;;;;;;5118115;28;20082;-75
2022/03/23 14:52:49;;;;;;;27.38;17.27;;;;;;;;;;5118171;28;20043;-74
2022/03/23 14:55:15;;;;;;;25.98;16.38;;;;;;;;;;5119560;28;20111;-74